CheckWX is a tool to help pilots better visualize weather data.  It is not intended as a substitute for an official pre-flight weather briefing.

19:58:23 UTC

OBBI TAF
Bahrain International Airport
Manama, Bahrain
TAF OBBI 251700Z 2518/2700 32010KT CAVOK

Jun-25@
18:00 UTC

Jun-25 @ 18:00 UTC

Jun-27@
00:00 UTC

Jun-27 @ 00:00 UTC

TAF OBBI 251700Z 2518/2700 32010KT CAVOK
Wind
  • 320° at 10 KTS
Conditions
No significant weather
Cloud Levels
  • No significant clouds